createdAt,value
2018-08-20T00:00:45.471Z,7.33
2018-08-20T00:03:13.760Z,7.43
2018-08-20T00:05:45.215Z,9.60
2018-08-20T00:08:13.447Z,7.67
2018-08-20T00:10:41.653Z,7.00
2018-08-20T00:13:09.857Z,11.43
2018-08-20T00:15:38.070Z,8.33
2018-08-20T00:18:06.431Z,11.07
2018-08-20T00:20:34.635Z,9.00
2018-08-20T00:23:03.689Z,7.57
2018-08-20T00:25:31.925Z,8.60
2018-08-20T00:28:00.485Z,7.57
2018-08-20T00:30:28.687Z,7.57
2018-08-20T00:32:56.919Z,8.43
2018-08-20T00:35:25.121Z,8.17
2018-08-20T00:37:53.624Z,7.90
2018-08-20T00:40:22.192Z,7.93
2018-08-20T00:42:50.443Z,8.13
2018-08-20T00:45:18.646Z,8.37
2018-08-20T00:47:46.879Z,8.57
2018-08-20T00:50:15.103Z,10.03
2018-08-20T00:52:43.326Z,7.70
2018-08-20T00:55:12.951Z,8.37
2018-08-20T00:57:41.672Z,7.63
2018-08-20T01:00:10.665Z,7.50
2018-08-20T01:02:38.899Z,8.97
2018-08-20T01:05:07.116Z,7.97
2018-08-20T01:07:35.355Z,7.47
2018-08-20T01:10:04.016Z,8.30
2018-08-20T01:12:32.231Z,10.07
2018-08-20T01:15:00.459Z,8.60
2018-08-20T01:17:28.688Z,7.37
2018-08-20T01:19:56.940Z,7.53
2018-08-20T01:22:25.159Z,8.23
2018-08-20T01:24:53.396Z,7.63
2018-08-20T01:27:29.490Z,9.90
2018-08-20T01:29:57.733Z,8.90
2018-08-20T01:32:25.937Z,7.77
2018-08-20T01:34:54.201Z,8.07
2018-08-20T01:37:22.745Z,7.20
2018-08-20T01:39:51.156Z,7.93
2018-08-20T01:42:19.529Z,9.07
2018-08-20T01:44:48.428Z,7.80
2018-08-20T01:47:16.640Z,7.27
2018-08-20T01:49:44.860Z,10.60
2018-08-20T01:52:13.058Z,8.10
2018-08-20T01:54:41.288Z,7.10
2018-08-20T01:57:09.519Z,7.50
2018-08-20T01:59:38.573Z,7.93
2018-08-20T02:02:06.791Z,7.23
2018-08-20T02:04:35.020Z,6.97
2018-08-20T02:07:03.266Z,9.33
2018-08-20T02:09:31.548Z,8.17
2018-08-20T02:11:59.768Z,7.50
2018-08-20T02:14:27.991Z,8.23
2018-08-20T02:16:56.219Z,8.17
2018-08-20T02:19:24.451Z,8.17
2018-08-20T02:21:52.669Z,8.87
2018-08-20T02:24:20.882Z,7.70
2018-08-20T02:26:49.092Z,8.70
2018-08-20T02:29:17.332Z,7.63
2018-08-20T02:31:45.568Z,8.60
2018-08-20T02:34:13.863Z,7.57
2018-08-20T02:36:42.120Z,8.53
2018-08-20T02:39:12.825Z,9.70
2018-08-20T02:41:41.513Z,6.90
2018-08-20T02:44:10.808Z,7.67
2018-08-20T02:46:43.805Z,7.50
2018-08-20T02:49:12.198Z,8.00
2018-08-20T02:51:40.544Z,8.33
2018-08-20T02:54:09.030Z,8.03
2018-08-20T02:56:37.258Z,8.00
2018-08-20T02:59:05.492Z,7.83
2018-08-20T03:01:33.683Z,8.73
2018-08-20T03:04:01.946Z,9.97
2018-08-20T03:06:30.213Z,8.20
2018-08-20T03:08:58.464Z,9.50
2018-08-20T03:11:26.700Z,7.80
2018-08-20T03:13:54.951Z,9.80
2018-08-20T03:16:23.175Z,9.97
2018-08-20T03:18:51.455Z,9.73
2018-08-20T03:21:19.663Z,8.20
2018-08-20T03:23:47.906Z,10.43
2018-08-20T03:26:16.180Z,7.90
2018-08-20T03:28:44.398Z,8.97
2018-08-20T03:31:12.682Z,7.73
2018-08-20T03:33:40.945Z,9.37
2018-08-20T03:36:09.177Z,8.80
2018-08-20T03:38:37.413Z,7.97
2018-08-20T03:41:05.688Z,10.37
2018-08-20T03:43:34.105Z,10.20
2018-08-20T03:46:02.364Z,10.20
2018-08-20T03:48:30.706Z,10.77
2018-08-20T03:50:58.944Z,11.13
2018-08-20T03:53:27.172Z,11.47
2018-08-20T03:55:55.425Z,11.23
2018-08-20T03:58:23.675Z,8.83
2018-08-20T04:00:51.920Z,10.03
2018-08-20T04:03:20.144Z,9.77
2018-08-20T04:05:48.408Z,9.40
2018-08-20T04:08:16.683Z,13.00
2018-08-20T04:10:44.924Z,10.33
2018-08-20T04:13:13.145Z,14.87
2018-08-20T04:15:41.460Z,12.43
2018-08-20T04:18:09.796Z,11.80
2018-08-20T04:20:38.024Z,15.33
2018-08-20T04:23:06.308Z,14.07
2018-08-20T04:25:35.004Z,17.10
2018-08-20T04:28:03.349Z,11.87
2018-08-20T04:30:31.620Z,14.43
2018-08-20T04:32:59.825Z,12.33
2018-08-20T04:35:28.036Z,13.30
2018-08-20T04:37:56.340Z,17.10
2018-08-20T04:40:24.636Z,12.53
2018-08-20T04:42:52.841Z,13.90
2018-08-20T04:45:21.092Z,26.27
2018-08-20T04:47:49.514Z,22.40
2018-08-20T04:50:17.935Z,20.93
2018-08-20T04:52:46.048Z,25.07
2018-08-20T04:55:14.301Z,23.23
2018-08-20T04:57:42.728Z,19.60
2018-08-20T05:00:12.100Z,14.93
2018-08-20T05:02:40.360Z,19.23
2018-08-20T05:05:08.579Z,18.00
2018-08-20T05:07:36.806Z,12.83
2018-08-20T05:10:05.193Z,8.77
2018-08-20T05:12:33.488Z,10.80
2018-08-20T05:15:01.709Z,11.00
2018-08-20T05:17:30.059Z,9.90
2018-08-20T05:19:58.395Z,9.17
2018-08-20T05:22:26.628Z,11.07
2018-08-20T05:24:54.839Z,9.67
2018-08-20T05:27:23.105Z,12.00
2018-08-20T05:29:51.341Z,10.80
2018-08-20T05:32:19.580Z,10.60
2018-08-20T05:34:47.909Z,10.23
2018-08-20T05:37:16.133Z,10.50
2018-08-20T05:39:44.344Z,16.07
2018-08-20T05:42:12.566Z,11.70
2018-08-20T05:44:40.823Z,9.30
2018-08-20T05:47:09.036Z,11.57
2018-08-20T05:49:37.272Z,13.10
2018-08-20T05:52:05.797Z,12.97
2018-08-20T05:54:34.022Z,10.03
2018-08-20T05:57:02.280Z,15.47
2018-08-20T05:59:30.533Z,11.77
2018-08-20T06:01:58.766Z,12.47
2018-08-20T06:04:26.986Z,10.40
2018-08-20T06:06:55.256Z,15.73
2018-08-20T06:09:23.465Z,13.27
2018-08-20T06:11:51.768Z,12.60
2018-08-20T06:14:19.992Z,13.63
2018-08-20T06:16:48.256Z,10.27
2018-08-20T06:19:16.473Z,13.40
2018-08-20T06:21:44.725Z,12.07
2018-08-20T06:24:12.974Z,11.87
2018-08-20T06:26:41.213Z,12.20
2018-08-20T06:29:09.434Z,11.10
2018-08-20T06:31:37.669Z,14.00
2018-08-20T06:34:05.985Z,15.83
2018-08-20T06:36:34.243Z,14.47
2018-08-20T06:39:02.451Z,13.43
2018-08-20T06:41:30.770Z,17.53
2018-08-20T06:43:59.005Z,18.53
2018-08-20T06:46:27.288Z,11.77
2018-08-20T06:48:55.505Z,14.57
2018-08-20T06:51:23.741Z,16.13
2018-08-20T06:53:51.943Z,12.30
2018-08-20T06:56:20.194Z,11.77
2018-08-20T06:58:48.422Z,11.50
2018-08-20T07:01:16.633Z,11.73
2018-08-20T07:03:44.865Z,13.13
2018-08-20T07:06:13.084Z,12.83
2018-08-20T07:08:41.336Z,12.33
2018-08-20T07:11:09.563Z,13.30
2018-08-20T07:13:38.311Z,14.63
2018-08-20T07:16:07.663Z,11.33
2018-08-20T07:18:35.929Z,12.37
2018-08-20T07:21:04.179Z,12.17
2018-08-20T07:23:32.567Z,10.93
2018-08-20T07:26:00.689Z,11.53
2018-08-20T07:28:28.927Z,8.68
2018-08-20T07:30:57.169Z,11.15
2018-08-20T07:33:25.400Z,7.30
2018-08-20T07:35:53.643Z,12.37
2018-08-20T07:38:21.909Z,13.22
2018-08-20T07:40:50.131Z,9.35
2018-08-20T07:43:18.384Z,9.78
2018-08-20T07:45:46.628Z,12.18
2018-08-20T07:48:14.869Z,12.07
2018-08-20T07:50:43.213Z,10.70
2018-08-20T07:53:11.523Z,11.25
2018-08-20T07:55:40.006Z,12.37
2018-08-20T07:58:08.697Z,10.38
2018-08-20T08:00:37.012Z,9.78
2018-08-20T08:03:05.302Z,12.58
2018-08-20T08:05:33.532Z,9.30
2018-08-20T08:08:01.832Z,11.88
2018-08-20T08:10:30.096Z,8.28
2018-08-20T08:12:58.360Z,10.68
2018-08-20T08:15:26.631Z,9.50
2018-08-20T08:17:54.914Z,10.78
2018-08-20T08:20:23.235Z,9.08
2018-08-20T08:22:51.467Z,9.63
2018-08-20T08:25:19.696Z,8.25
2018-08-20T08:27:47.923Z,10.00
2018-08-20T08:30:18.107Z,8.15
2018-08-20T08:32:48.335Z,8.43
2018-08-20T08:35:16.574Z,9.08
2018-08-20T08:37:44.834Z,9.73
2018-08-20T08:40:14.294Z,9.48
2018-08-20T08:42:42.573Z,8.98
2018-08-20T08:45:15.407Z,10.63
2018-08-20T08:47:44.161Z,10.98
2018-08-20T08:50:12.861Z,8.85
2018-08-20T08:52:41.322Z,12.28
2018-08-20T08:55:10.127Z,9.60
2018-08-20T08:57:38.993Z,8.73
2018-08-20T09:00:24.252Z,7.97
2018-08-20T09:02:52.582Z,9.37
2018-08-20T09:05:20.792Z,10.53
2018-08-20T09:07:49.095Z,9.83
2018-08-20T09:10:17.368Z,8.93
2018-08-20T09:12:45.641Z,11.23
2018-08-20T09:15:15.313Z,10.37
2018-08-20T09:17:44.013Z,9.37
2018-08-20T09:20:14.135Z,13.90
2018-08-20T09:22:42.550Z,11.27
2018-08-20T09:25:11.730Z,10.97
2018-08-20T09:27:40.689Z,9.00
2018-08-20T09:30:11.778Z,7.93
2018-08-20T09:32:40.134Z,6.87
2018-08-20T09:35:09.237Z,8.07
2018-08-20T09:37:37.887Z,6.47
2018-08-20T09:40:06.392Z,5.63
2018-08-20T09:42:34.636Z,4.87
2018-08-20T09:45:03.002Z,4.67
2018-08-20T09:47:31.304Z,5.07
2018-08-20T09:50:00.405Z,4.33
2018-08-20T09:52:28.740Z,5.80
2018-08-20T09:54:57.030Z,4.97
2018-08-20T09:57:25.440Z,6.65
2018-08-20T09:59:56.893Z,7.05
2018-08-20T10:02:25.439Z,4.93
2018-08-20T10:04:53.664Z,5.03
2018-08-20T10:07:21.990Z,7.10
2018-08-20T10:09:50.318Z,7.20
2018-08-20T10:12:18.609Z,6.05
2018-08-20T10:14:47.044Z,10.53
2018-08-20T10:17:15.283Z,6.83
2018-08-20T10:19:43.702Z,5.72
2018-08-20T10:22:11.954Z,6.65
2018-08-20T10:24:40.246Z,2.50
2018-08-20T10:27:08.519Z,2.75
2018-08-20T10:29:36.769Z,4.22
2018-08-20T10:32:05.067Z,8.08
2018-08-20T10:34:33.252Z,4.40
2018-08-20T10:37:01.485Z,4.95
2018-08-20T10:39:29.726Z,3.05
2018-08-20T10:41:57.985Z,5.17
2018-08-20T10:44:26.207Z,4.35
2018-08-20T10:46:54.437Z,5.05
2018-08-20T10:49:22.672Z,4.90
2018-08-20T10:51:50.892Z,5.12
2018-08-20T10:54:19.152Z,5.33
2018-08-20T10:56:47.361Z,6.97
2018-08-20T10:59:15.658Z,10.90
2018-08-20T11:01:43.884Z,5.53
2018-08-20T11:04:12.150Z,5.50
2018-08-20T11:06:40.393Z,3.50
2018-08-20T11:09:08.654Z,3.87
2018-08-20T11:11:36.881Z,6.03
2018-08-20T11:14:05.118Z,5.12
2018-08-20T11:16:33.319Z,3.65
2018-08-20T11:19:01.550Z,4.92
2018-08-20T11:21:29.782Z,3.17
2018-08-20T11:23:58.014Z,5.80
2018-08-20T11:26:26.251Z,5.20
2018-08-20T11:28:54.479Z,4.45
2018-08-20T11:31:22.701Z,3.60
2018-08-20T11:33:50.915Z,4.58
2018-08-20T11:36:19.407Z,4.35
2018-08-20T11:38:47.691Z,3.62
2018-08-20T11:41:16.059Z,4.12
2018-08-20T11:43:44.269Z,3.83
2018-08-20T11:46:12.594Z,16.35
2018-08-20T11:48:40.824Z,4.72
2018-08-20T11:51:09.237Z,3.77
2018-08-20T11:53:37.586Z,3.00
2018-08-20T11:56:05.865Z,3.37
2018-08-20T11:58:34.117Z,4.58
2018-08-20T12:01:02.424Z,3.83
2018-08-20T12:03:30.650Z,2.90
2018-08-20T12:05:58.901Z,4.12
2018-08-20T12:08:27.132Z,2.65
2018-08-20T12:10:55.365Z,2.55
2018-08-20T12:13:23.595Z,3.40
2018-08-20T12:15:51.897Z,2.52
2018-08-20T12:18:20.167Z,3.75
2018-08-20T12:20:48.428Z,2.60
2018-08-20T12:23:16.699Z,2.67
2018-08-20T12:25:44.874Z,2.15
2018-08-20T12:28:13.206Z,2.75
2018-08-20T12:30:41.410Z,2.95
2018-08-20T12:33:09.638Z,1.62
2018-08-20T12:35:37.891Z,2.62
2018-08-20T12:38:06.249Z,2.15
2018-08-20T12:40:35.448Z,3.40
2018-08-20T12:43:03.621Z,2.65
2018-08-20T12:45:31.932Z,3.37
2018-08-20T12:48:00.181Z,2.58
2018-08-20T12:50:28.412Z,3.50
2018-08-20T12:52:56.771Z,3.35
2018-08-20T12:55:24.983Z,1.70
2018-08-20T12:57:53.258Z,2.60
2018-08-20T13:00:21.551Z,6.62
2018-08-20T13:02:49.778Z,3.60
2018-08-20T13:05:18.008Z,4.62
2018-08-20T13:07:46.231Z,5.17
2018-08-20T13:10:14.497Z,3.35
2018-08-20T13:12:42.732Z,5.30
2018-08-20T13:15:10.941Z,8.40
2018-08-20T13:17:39.193Z,2.87
2018-08-20T13:20:07.652Z,4.45
2018-08-20T13:22:35.998Z,5.12
2018-08-20T13:25:04.348Z,4.12
2018-08-20T13:27:32.641Z,5.30
2018-08-20T13:30:00.921Z,6.60
2018-08-20T13:32:29.159Z,2.02
2018-08-20T13:34:57.373Z,2.17
2018-08-20T13:37:25.711Z,4.45
2018-08-20T13:39:53.863Z,2.42
2018-08-20T13:42:22.120Z,2.85
2018-08-20T13:44:50.390Z,7.78
2018-08-20T13:47:18.616Z,2.52
2018-08-20T13:49:46.848Z,2.83
2018-08-20T13:52:15.095Z,2.83
2018-08-20T13:54:43.665Z,3.52
2018-08-20T13:57:11.888Z,4.55
2018-08-20T13:59:40.136Z,2.83
2018-08-20T14:02:08.365Z,4.53
2018-08-20T14:04:36.645Z,3.12
2018-08-20T14:07:04.910Z,5.15
2018-08-20T14:09:33.152Z,2.90
2018-08-20T14:12:01.462Z,3.40
2018-08-20T14:14:29.660Z,2.15
2018-08-20T14:16:57.899Z,5.33
2018-08-20T14:19:26.144Z,3.90
2018-08-20T14:21:54.415Z,4.20
2018-08-20T14:24:22.637Z,8.50
2018-08-20T14:26:50.950Z,1.60
2018-08-20T14:29:19.156Z,4.00
2018-08-20T14:31:47.382Z,3.85
2018-08-20T14:34:15.620Z,3.90
2018-08-20T14:36:45.196Z,6.12
2018-08-20T14:39:13.400Z,6.72
2018-08-20T14:41:41.626Z,3.63
2018-08-20T14:44:09.872Z,3.13
2018-08-20T14:46:38.109Z,2.60
2018-08-20T14:49:06.336Z,5.57
2018-08-20T14:51:34.789Z,5.20
2018-08-20T14:54:02.997Z,6.03
2018-08-20T14:56:31.220Z,3.20
2018-08-20T14:58:59.423Z,3.05
2018-08-20T15:01:27.732Z,6.53
2018-08-20T15:03:55.983Z,2.47
2018-08-20T15:06:24.189Z,3.67
2018-08-20T15:08:52.425Z,2.75
2018-08-20T15:11:20.677Z,3.37
2018-08-20T15:13:48.950Z,4.53
2018-08-20T15:16:17.696Z,4.12
2018-08-20T15:18:45.951Z,8.18
2018-08-20T15:21:14.188Z,2.83
2018-08-20T15:23:43.195Z,4.25
2018-08-20T15:26:11.394Z,3.22
2018-08-20T15:28:39.634Z,2.55
2018-08-20T15:31:07.864Z,4.47
2018-08-20T15:33:36.144Z,3.95
2018-08-20T15:36:04.728Z,4.58
2018-08-20T15:38:32.959Z,5.33
2018-08-20T15:41:01.188Z,2.90
2018-08-20T15:43:29.423Z,6.35
2018-08-20T15:45:57.627Z,8.38
2018-08-20T15:48:25.885Z,3.85
2018-08-20T15:50:54.097Z,4.50
2018-08-20T15:53:22.389Z,2.52
2018-08-20T15:55:50.746Z,3.25
2018-08-20T15:58:19.169Z,8.45
2018-08-20T16:00:47.397Z,3.90
2018-08-20T16:03:15.664Z,5.67
2018-08-20T16:05:43.911Z,13.58
2018-08-20T16:08:12.162Z,2.72
2018-08-20T16:10:40.492Z,3.97
2018-08-20T16:13:08.794Z,2.83
2018-08-20T16:15:37.074Z,2.70
2018-08-20T16:18:05.831Z,4.58
2018-08-20T16:20:34.057Z,4.17
2018-08-20T16:23:02.321Z,4.45
2018-08-20T16:25:30.693Z,2.30
2018-08-20T16:27:58.960Z,2.47
2018-08-20T16:30:27.208Z,4.20
2018-08-20T16:32:55.510Z,6.63
2018-08-20T16:35:23.740Z,3.03
2018-08-20T16:37:52.318Z,3.15
2018-08-20T16:40:20.548Z,1.93
2018-08-20T16:42:48.842Z,2.67
2018-08-20T16:45:17.061Z,2.00
2018-08-20T16:47:45.274Z,3.83
2018-08-20T16:50:13.978Z,3.93
2018-08-20T16:52:43.065Z,6.57
2018-08-20T16:55:11.328Z,3.20
2018-08-20T16:57:39.616Z,3.67
2018-08-20T17:00:09.764Z,4.23
2018-08-20T17:02:39.517Z,3.33
2018-08-20T17:05:08.984Z,4.07
2018-08-20T17:07:37.231Z,2.40
2018-08-20T17:10:06.853Z,4.47
2018-08-20T17:12:35.097Z,2.80
2018-08-20T17:15:07.918Z,2.80
2018-08-20T17:17:36.576Z,3.00
2018-08-20T17:20:05.272Z,3.13
2018-08-20T17:22:33.496Z,3.00
2018-08-20T17:25:01.882Z,4.87
2018-08-20T17:27:30.095Z,4.00
2018-08-20T17:29:58.329Z,5.73
2018-08-20T17:32:26.686Z,5.17
2018-08-20T17:34:54.975Z,7.37
2018-08-20T17:37:23.184Z,7.03
2018-08-20T17:40:00.057Z,6.07
2018-08-20T17:42:29.618Z,6.93
2018-08-20T17:44:58.338Z,8.20
2018-08-20T17:47:27.339Z,4.87
2018-08-20T17:49:56.608Z,2.90
2018-08-20T17:52:34.795Z,3.13
2018-08-20T17:55:05.078Z,5.40
2018-08-20T17:57:33.616Z,3.07
2018-08-20T18:00:43.444Z,3.57
2018-08-20T18:03:18.264Z,4.97
2018-08-20T18:05:53.202Z,2.70
2018-08-20T18:08:22.292Z,4.00
2018-08-20T18:10:50.911Z,3.03
2018-08-20T18:13:32.285Z,3.17
2018-08-20T18:16:01.599Z,3.57
2018-08-20T18:18:33.527Z,5.50
2018-08-20T18:21:01.795Z,3.93
2018-08-20T18:23:31.409Z,9.13
2018-08-20T18:25:59.656Z,3.50
2018-08-20T18:28:28.381Z,3.33
2018-08-20T18:31:01.904Z,3.30
2018-08-20T18:33:30.152Z,2.93
2018-08-20T18:36:02.837Z,2.97
2018-08-20T18:38:33.066Z,3.33
2018-08-20T18:41:01.324Z,4.20
2018-08-20T18:43:29.565Z,3.80
2018-08-20T18:45:57.816Z,4.87
2018-08-20T18:48:30.279Z,5.37
2018-08-20T18:50:58.520Z,2.87
2018-08-20T18:53:31.182Z,3.03
2018-08-20T18:56:02.629Z,3.73
2018-08-20T18:58:31.849Z,2.80
2018-08-20T19:01:00.144Z,2.83
2018-08-20T19:03:32.621Z,2.93
2018-08-20T19:06:03.608Z,3.70
2018-08-20T19:08:32.356Z,3.23
2018-08-20T19:11:00.597Z,3.30
2018-08-20T19:13:28.820Z,2.40
2018-08-20T19:15:57.056Z,2.70
2018-08-20T19:18:35.056Z,4.03
2018-08-20T19:21:04.397Z,3.57
2018-08-20T19:23:32.665Z,4.27
2018-08-20T19:26:00.906Z,5.70
2018-08-20T19:28:29.110Z,3.63
2018-08-20T19:30:57.443Z,5.87
2018-08-20T19:33:28.206Z,2.57
2018-08-20T19:35:56.453Z,3.07
2018-08-20T19:38:24.748Z,3.00
2018-08-20T19:41:02.563Z,5.03
2018-08-20T19:43:35.073Z,4.90
2018-08-20T19:46:03.433Z,3.90
2018-08-20T19:48:31.652Z,3.27
2018-08-20T19:50:59.888Z,3.60
2018-08-20T19:53:28.191Z,3.80
2018-08-20T19:55:56.530Z,3.70
2018-08-20T19:58:30.520Z,3.30
2018-08-20T20:01:09.108Z,4.77
2018-08-20T20:03:40.384Z,3.43
2018-08-20T20:06:08.873Z,3.73
2018-08-20T20:08:37.347Z,4.60
2018-08-20T20:11:09.204Z,5.27
2018-08-20T20:13:37.469Z,3.23
2018-08-20T20:16:05.725Z,6.77
2018-08-20T20:18:34.011Z,3.53
2018-08-20T20:21:02.782Z,3.57
2018-08-20T20:23:31.092Z,3.57
2018-08-20T20:25:59.316Z,4.13
2018-08-20T20:28:27.546Z,3.67
2018-08-20T20:30:55.800Z,5.17
2018-08-20T20:33:24.152Z,3.53
2018-08-20T20:35:52.518Z,3.27
2018-08-20T20:38:20.803Z,3.70
2018-08-20T20:40:49.064Z,4.43
2018-08-20T20:43:19.445Z,4.33
2018-08-20T20:45:47.697Z,3.10
2018-08-20T20:48:15.959Z,4.30
2018-08-20T20:50:44.197Z,4.50
2018-08-20T20:53:12.449Z,5.80
2018-08-20T20:55:40.836Z,5.87
2018-08-20T20:58:09.257Z,4.07
2018-08-20T21:00:37.461Z,2.80
2018-08-20T21:03:11.734Z,3.10
2018-08-20T21:05:40.076Z,4.07
2018-08-20T21:08:08.313Z,4.20
2018-08-20T21:10:41.813Z,4.40
2018-08-20T21:13:10.059Z,5.13
2018-08-20T21:15:38.469Z,3.30
2018-08-20T21:18:06.808Z,2.70
2018-08-20T21:20:35.017Z,2.80
2018-08-20T21:23:03.252Z,4.87
2018-08-20T21:25:31.476Z,2.53
2018-08-20T21:27:59.716Z,2.67
2018-08-20T21:30:32.188Z,4.47
2018-08-20T21:33:00.408Z,2.60
2018-08-20T21:35:28.632Z,4.37
2018-08-20T21:37:57.046Z,3.43
2018-08-20T21:40:30.676Z,2.60
2018-08-20T21:42:59.262Z,2.40
2018-08-20T21:45:27.474Z,3.43
2018-08-20T21:47:55.699Z,5.47
2018-08-20T21:50:23.909Z,5.40
2018-08-20T21:52:57.804Z,3.80
2018-08-20T21:55:26.029Z,5.57
2018-08-20T21:57:56.373Z,5.17
2018-08-20T22:00:24.792Z,10.43
2018-08-20T22:02:59.757Z,5.33
2018-08-20T22:05:28.258Z,3.90
2018-08-20T22:07:57.481Z,2.70
2018-08-20T22:10:26.717Z,3.33
2018-08-20T22:12:54.974Z,2.90
2018-08-20T22:15:23.252Z,2.07
2018-08-20T22:17:51.505Z,3.07
2018-08-20T22:20:19.725Z,2.20
2018-08-20T22:22:47.942Z,2.67
2018-08-20T22:25:16.896Z,5.30
2018-08-20T22:27:50.500Z,3.13
2018-08-20T22:30:18.734Z,3.53
2018-08-20T22:32:47.072Z,2.10
2018-08-20T22:35:20.674Z,1.77
2018-08-20T22:37:50.864Z,2.00
2018-08-20T22:40:19.780Z,2.97
2018-08-20T22:42:50.733Z,2.00
2018-08-20T22:45:19.975Z,3.70
2018-08-20T22:47:49.164Z,1.87
2018-08-20T22:50:17.453Z,4.70
2018-08-20T22:52:47.264Z,1.93
2018-08-20T22:55:16.599Z,3.37
2018-08-20T22:57:56.065Z,2.07
2018-08-20T23:00:25.408Z,1.70
2018-08-20T23:02:54.842Z,5.03
2018-08-20T23:05:23.055Z,2.97
2018-08-20T23:07:51.657Z,2.37
2018-08-20T23:10:19.943Z,2.00
2018-08-20T23:12:50.339Z,1.67
2018-08-20T23:15:18.742Z,3.20
2018-08-20T23:17:46.990Z,1.80
2018-08-20T23:20:32.654Z,3.27
2018-08-20T23:23:01.543Z,3.33
2018-08-20T23:25:29.980Z,2.23
2018-08-20T23:27:58.214Z,1.63
2018-08-20T23:30:26.438Z,1.73
2018-08-20T23:32:54.796Z,2.80
2018-08-20T23:35:23.062Z,2.47
2018-08-20T23:37:51.743Z,2.23
2018-08-20T23:40:19.997Z,3.27
2018-08-20T23:42:48.235Z,3.30
2018-08-20T23:45:16.489Z,4.33
2018-08-20T23:47:44.715Z,1.87
2018-08-20T23:50:12.937Z,3.80
2018-08-20T23:52:42.428Z,3.60
2018-08-20T23:55:10.669Z,1.97
2018-08-20T23:57:39.073Z,1.77
